Time;durP1;ratioP1;P1;durP2;ratioP2;P2;SDS_P1;SDS_P2;PMS_P1;PMS_P2;Temp;Humidity;BMP_temperature;BMP_pressure;BME280_temperature;BME280_humidity;BME280_pressure;Samples;Min_cycle;Max_cycle;Signal;HPM_P1;HPM_P2
2022/01/16 00:01:35;;;;;;;;;61.25;47.25;;;;;3.89;57.26;102130.88;5089670;27;45870;-82
2022/01/16 00:04:07;;;;;;;;;63.00;46.50;;;;;3.99;58.30;102145.38;5106581;27;45400;-82
2022/01/16 00:06:35;;;;;;;;;59.50;44.25;;;;;3.86;58.09;102120.28;5104963;27;45192;-80
2022/01/16 00:09:01;;;;;;;;;62.25;45.00;;;;;3.89;57.36;102120.91;5086093;27;45366;-81
2022/01/16 00:11:27;;;;;;;;;59.75;49.25;;;;;3.86;57.68;102112.16;5087717;27;45592;-82
2022/01/16 00:13:53;;;;;;;;;50.25;40.50;;;;;3.89;56.85;102125.44;5082555;27;46999;-82
2022/01/16 00:16:18;;;;;;;;;56.50;42.25;;;;;3.88;56.82;102138.16;5079520;27;45411;-82
2022/01/16 00:18:54;;;;;;;;;55.75;41.50;;;;;4.01;57.40;102158.81;5078668;27;46002;-82
2022/01/16 00:21:26;;;;;;;;;62.75;46.00;;;;;3.64;57.08;102089.56;5098176;27;45812;-85
2022/01/16 00:23:52;;;;;;;;;61.25;43.50;;;;;3.70;58.60;102093.63;5099940;27;46582;-88
2022/01/16 00:26:21;;;;;;;;;63.00;45.75;;;;;3.97;58.07;102150.09;5088508;27;45390;-88
2022/01/16 00:28:49;;;;;;;;;60.25;44.25;;;;;3.95;57.36;102162.94;5106273;27;45775;-80
2022/01/16 00:31:16;;;;;;;;;63.00;43.00;;;;;3.63;57.22;102136.66;5099358;27;45903;-91
2022/01/16 00:33:45;;;;;;;;;68.00;44.75;;;;;3.86;57.65;102199.88;5085498;27;45830;-83
2022/01/16 00:36:19;;;;;;;;;60.00;45.50;;;;;3.88;58.79;102194.31;5097950;27;45583;-88
2022/01/16 00:39:00;;;;;;;;;62.75;45.25;;;;;3.89;57.53;102168.88;5084026;27;45516;-84
2022/01/16 00:41:26;;;;;;;;;58.75;43.50;;;;;3.86;57.36;102147.44;5078050;27;46061;-83
2022/01/16 00:43:53;;;;;;;;;68.25;47.25;;;;;3.64;57.30;102088.72;5096442;27;45562;-81
2022/01/16 00:46:20;;;;;;;;;60.50;46.00;;;;;3.36;58.56;102075.59;5096681;27;45858;-82
2022/01/16 00:48:46;;;;;;;;;60.00;46.75;;;;;3.50;57.23;102090.75;5096299;27;45883;-82
2022/01/16 00:51:13;;;;;;;;;61.50;43.00;;;;;3.81;57.82;102145.09;5096907;27;45462;-81
2022/01/16 00:53:42;;;;;;;;;58.50;42.75;;;;;3.84;57.16;102161.13;5083438;27;45453;-82
2022/01/16 00:56:07;;;;;;;;;65.75;50.50;;;;;3.89;57.72;102158.91;5058889;28;45648;-83
2022/01/16 00:58:33;;;;;;;;;61.00;47.00;;;;;3.80;57.95;102153.38;5080024;28;45977;-82
2022/01/16 01:00:59;;;;;;;;;62.75;47.50;;;;;3.88;58.05;102161.75;5076550;28;45500;-83
2022/01/16 01:03:25;;;;;;;;;60.00;45.00;;;;;3.91;57.87;102236.59;5063611;28;47178;-89
2022/01/16 01:05:51;;;;;;;;;64.25;48.25;;;;;3.90;57.49;102195.03;5069253;28;45465;-89
2022/01/16 01:08:17;;;;;;;;;61.75;47.00;;;;;3.90;58.24;102224.88;5089487;28;45525;-88
2022/01/16 01:10:47;;;;;;;;;61.00;47.25;;;;;3.67;57.63;102162.56;5082140;28;45356;-80
2022/01/16 01:13:23;;;;;;;;;62.75;47.75;;;;;3.79;58.28;102206.78;5067093;28;45855;-80
2022/01/16 01:16:01;;;;;;;;;;;;;;;;;;;;;
2022/01/16 01:18:28;;;;;;;;;60.75;44.50;;;;;3.88;58.62;102199.75;5075611;28;68712;-83
2022/01/16 01:20:54;;;;;;;;;64.25;48.50;;;;;3.87;58.00;102200.72;5058044;28;47040;-84
2022/01/16 01:23:22;;;;;;;;;68.50;47.75;;;;;3.89;58.27;102164.31;5080285;28;46027;-88
2022/01/16 01:25:48;;;;;;;;;62.25;44.50;;;;;3.91;58.34;102117.19;5063679;28;45910;-87
2022/01/16 01:28:13;;;;;;;;;61.75;47.00;;;;;3.81;58.47;102104.41;5081854;28;45487;-87
2022/01/16 01:30:41;;;;;;;;;56.00;45.00;;;;;3.91;58.34;102117.19;5062058;28;46639;-81
2022/01/16 01:33:07;;;;;;;;;63.50;43.75;;;;;3.79;58.09;102076.53;5074324;28;45473;-81
2022/01/16 01:35:38;;;;;;;;;59.50;42.00;;;;;3.49;58.37;102042.91;5057467;28;45828;-87
2022/01/16 01:38:09;;;;;;;;;60.50;44.50;;;;;3.81;58.38;102127.97;5079761;28;45496;-86
2022/01/16 01:40:36;;;;;;;;;59.00;42.00;;;;;3.82;58.35;102143.28;5058599;28;45607;-81
2022/01/16 01:51:31;;;;;;;;;56.00;44.00;;;;;3.81;60.68;102187.66;5074554;27;46023;-81
2022/01/16 01:53:57;;;;;;;;;60.00;45.75;;;;;3.92;60.42;102217.47;5079119;27;47208;-88
2022/01/16 01:56:24;;;;;;;;;64.25;47.00;;;;;4.02;59.56;102229.28;5099527;27;45750;-82
2022/01/16 01:58:54;;;;;;;;;52.75;41.50;;;;;3.94;60.20;102207.34;5098701;27;45767;-87
2022/01/16 02:01:20;;;;;;;;;56.00;41.75;;;;;4.04;59.19;102221.00;5073512;27;45806;-81
2022/01/16 02:03:48;;;;;;;;;60.50;44.50;;;;;4.01;60.64;102233.00;5093207;27;45465;-80
2022/01/16 02:06:18;;;;;;;;;58.00;42.75;;;;;3.87;59.59;102209.72;5075966;27;45386;-80
2022/01/16 02:08:50;;;;;;;;;60.50;45.00;;;;;3.97;59.58;102234.25;5077385;27;45612;-81
2022/01/16 02:11:17;;;;;;;;;60.00;43.50;;;;;4.00;59.54;102241.28;5092618;27;47040;-81
2022/01/16 02:13:56;;;;;;;;;58.50;42.50;;;;;4.11;60.57;102259.38;5094685;27;47089;-81
2022/01/16 02:35:44;;;;;;;;;55.75;42.50;;;;;4.26;60.18;102214.63;5074506;28;45477;-89
2022/01/16 02:38:12;;;;;;;;;58.00;44.25;;;;;4.34;60.28;102233.84;5073654;27;45533;-82
2022/01/16 02:40:41;;;;;;;;;55.25;42.25;;;;;4.09;60.38;102201.59;5055812;28;45339;-82
2022/01/16 02:43:08;;;;;;;;;61.25;41.25;;;;;4.16;59.26;102202.81;5076636;28;45939;-88
2022/01/16 02:45:36;;;;;;;;;53.50;41.75;;;;;4.18;59.79;102200.84;5060437;28;47652;-84
2022/01/16 02:48:07;;;;;;;;;60.50;41.75;;;;;4.14;60.43;102218.38;5078572;28;45403;-85
2022/01/16 02:50:34;;;;;;;;;61.75;44.00;;;;;4.13;59.64;102219.38;5059040;28;45495;-80
2022/01/16 02:53:00;;;;;;;;;61.00;45.00;;;;;4.19;59.88;102208.88;5078100;27;45735;-80
2022/01/16 02:55:26;;;;;;;;;62.00;45.50;;;;;4.14;61.24;102196.66;5075688;28;45955;-81
2022/01/16 02:57:54;;;;;;;;;58.50;40.50;;;;;4.28;59.88;102214.47;5105633;27;45616;-80
2022/01/16 03:00:22;;;;;;;;;56.50;40.00;;;;;4.23;60.47;102209.44;5110732;27;45150;-80
2022/01/16 03:02:48;;;;;;;;;57.25;45.50;;;;;4.15;60.01;102184.81;5077863;27;46202;-81
2022/01/16 03:05:14;;;;;;;;;59.50;44.00;;;;;4.01;60.05;102180.53;5094015;27;45817;-79
2022/01/16 03:07:41;;;;;;;;;58.75;40.75;;;;;4.23;60.47;102210.31;5076885;27;45410;-80
2022/01/16 03:12:35;;;;;;;;;56.75;42.25;;;;;4.25;60.59;102199.31;5091522;27;45304;-81
2022/01/16 03:15:01;;;;;;;;;53.25;39.50;;;;;4.30;61.05;102205.22;5074086;28;46937;-81
2022/01/16 03:17:38;;;;;;;;;61.50;44.00;;;;;4.32;60.05;102203.22;5080150;27;45388;-81
2022/01/16 03:22:49;;;;;;;;;58.75;42.25;;;;;4.32;60.26;102176.06;5094501;27;45490;-80
2022/01/16 03:25:16;;;;;;;;;58.75;42.00;;;;;4.40;60.02;102198.00;5095817;27;45836;-79
2022/01/16 03:27:41;;;;;;;;;56.75;43.75;;;;;4.28;60.13;102179.19;5075098;28;45880;-79
2022/01/16 03:30:07;;;;;;;;;59.75;42.50;;;;;4.41;59.78;102201.56;5057179;28;45707;-80
2022/01/16 03:32:33;;;;;;;;;51.50;36.50;;;;;4.41;60.19;102190.72;5076766;28;45747;-77
2022/01/16 03:34:58;;;;;;;;;58.25;41.25;;;;;4.42;59.54;102198.72;5076194;28;45734;-78
2022/01/16 03:37:24;;;;;;;;;56.25;43.00;;;;;4.39;59.74;102182.69;5076197;28;45806;-82
2022/01/16 03:39:49;;;;;;;;;54.75;41.25;;;;;4.41;58.76;102186.13;5077260;28;45407;-81
2022/01/16 03:42:22;;;;;;;;;61.25;45.00;;;;;4.42;60.02;102177.00;5086305;28;45632;-88
2022/01/16 03:44:48;;;;;;;;;60.50;45.50;;;;;4.48;59.78;102183.75;5085485;28;46685;-88
2022/01/16 03:47:15;;;;;;;;;58.75;44.75;;;;;4.24;58.96;102146.00;5070451;28;45371;-90
2022/01/16 03:49:40;;;;;;;;;45.75;38.75;;;;;4.28;59.62;102144.75;5087535;28;45398;-88
2022/01/16 03:52:06;;;;;;;;;54.50;42.75;;;;;4.53;59.52;102180.63;5081459;28;46178;-89
2022/01/16 03:54:32;;;;;;;;;55.50;40.75;;;;;4.49;59.02;102173.75;5064819;28;46901;-88
2022/01/16 03:57:00;;;;;;;;;58.75;41.50;;;;;4.66;59.00;102208.47;5086240;28;45378;-87
2022/01/16 03:59:26;;;;;;;;;63.50;46.75;;;;;4.63;59.20;102200.56;5081939;28;45437;-80
2022/01/16 04:01:52;;;;;;;;;56.00;42.75;;;;;4.39;58.64;102184.56;5076568;28;45533;-82
2022/01/16 04:04:21;;;;;;;;;60.50;39.00;;;;;4.56;58.62;102204.81;5076628;28;45504;-81
2022/01/16 04:06:46;;;;;;;;;63.75;46.75;;;;;4.51;59.20;102216.09;5057582;28;45606;-79
2022/01/16 04:09:12;;;;;;;;;65.25;45.75;;;;;4.42;59.15;102203.31;5071604;27;46023;-81
2022/01/16 04:11:44;;;;;;;;;62.00;48.00;;;;;4.46;58.94;102217.47;5076930;27;45852;-81
2022/01/16 04:14:15;;;;;;;;;64.50;42.75;;;;;4.41;59.53;102215.16;5096159;27;45693;-80
2022/01/16 04:16:41;;;;;;;;;67.00;47.50;;;;;4.37;60.17;102222.72;5075193;27;45764;-79
2022/01/16 04:19:07;;;;;;;;;61.75;47.50;;;;;4.21;59.50;102214.16;5080943;27;45383;-87
2022/01/16 04:21:33;;;;;;;;;61.50;45.25;;;;;4.38;60.23;102257.00;5065808;28;46115;-87
2022/01/16 04:23:59;;;;;;;;;61.25;45.75;;;;;4.41;60.14;102250.47;5084732;28;45363;-87
2022/01/16 04:26:25;;;;;;;;;59.25;41.75;;;;;4.46;59.39;102259.09;5088237;28;44835;-85
2022/01/16 04:28:52;;;;;;;;;62.25;45.00;;;;;4.24;61.03;102222.03;5068429;28;45371;-85
2022/01/16 04:31:18;;;;;;;;;68.50;46.25;;;;;4.50;61.26;102273.28;5060071;28;46101;-81
2022/01/16 04:33:45;;;;;;;;;61.50;46.25;;;;;4.49;59.75;102269.72;5056618;28;46608;-81
2022/01/16 04:36:12;;;;;;;;;69.00;46.75;;;;;4.42;60.32;102255.78;5073730;28;45707;-81
2022/01/16 04:38:44;;;;;;;;;63.75;47.25;;;;;4.48;60.47;102269.84;5074933;28;45369;-80
2022/01/16 04:43:55;;;;;;;;;62.00;43.75;;;;;4.51;61.03;102266.84;5076147;28;45413;-80
2022/01/16 04:46:27;;;;;;;;;61.50;45.50;;;;;4.50;60.18;102246.09;5061158;28;45458;-81
2022/01/16 04:48:54;;;;;;;;;66.00;43.25;;;;;4.54;60.63;102256.56;5086635;28;45434;-80
2022/01/16 04:51:21;;;;;;;;;55.50;41.50;;;;;4.52;61.21;102265.84;5075997;27;45966;-81
2022/01/16 04:53:48;;;;;;;;;58.25;43.25;;;;;4.55;60.70;102265.56;5091740;27;46281;-89
2022/01/16 04:56:14;;;;;;;;;64.25;44.75;;;;;4.42;60.70;102261.19;5078591;28;45758;-88
2022/01/16 04:58:40;;;;;;;;;63.75;46.00;;;;;4.42;61.09;102263.91;5064542;28;45426;-89
2022/01/16 05:01:07;;;;;;;;;55.50;42.75;;;;;4.53;60.08;102278.44;5067658;27;45746;-88
2022/01/16 05:03:33;;;;;;;;;55.00;40.00;;;;;4.52;60.57;102277.59;5080914;28;47120;-89
2022/01/16 05:05:59;;;;;;;;;55.75;42.25;;;;;4.42;60.62;102271.22;5061284;28;45490;-78
2022/01/16 05:08:26;;;;;;;;;54.00;41.00;;;;;4.47;61.32;102270.81;5074984;28;45492;-85
2022/01/16 05:10:55;;;;;;;;;52.00;40.25;;;;;4.44;59.77;102282.81;5075786;28;46633;-86
2022/01/16 05:18:37;;;;;;;;;58.00;41.75;;;;;4.17;61.42;102248.00;5101140;27;45402;-84
2022/01/16 05:21:04;;;;;;;;;57.50;39.50;;;;;4.25;60.94;102267.19;5095727;27;46640;-83
2022/01/16 05:23:29;;;;;;;;;53.00;39.75;;;;;3.87;60.64;102212.44;5091483;27;46258;-84
2022/01/16 05:25:55;;;;;;;;;52.00;37.00;;;;;4.20;60.81;102286.59;5068834;27;45831;-85
2022/01/16 05:28:22;;;;;;;;;42.75;36.25;;;;;4.23;60.83;102304.50;5068211;28;45393;-85
2022/01/16 05:30:48;;;;;;;;;48.25;36.50;;;;;4.01;62.23;102270.13;5080920;27;45292;-86
2022/01/16 05:33:22;;;;;;;;;44.75;34.75;;;;;4.26;60.74;102315.09;5095325;27;45449;-82
2022/01/16 05:35:48;;;;;;;;;47.25;26.75;;;;;4.18;62.03;102287.75;5073911;27;45725;-82
2022/01/16 05:38:14;;;;;;;;;52.25;36.75;;;;;4.29;61.48;102293.09;5102494;27;45418;-81
2022/01/16 05:40:40;;;;;;;;;38.75;31.00;;;;;4.29;60.65;102286.81;5067407;27;45462;-76
2022/01/16 05:43:06;;;;;;;;;44.25;34.00;;;;;4.28;60.94;102318.56;5064255;27;48257;-83
2022/01/16 05:45:32;;;;;;;;;50.00;37.00;;;;;4.32;62.03;102328.16;5086180;27;45812;-82
2022/01/16 05:48:03;;;;;;;;;47.25;35.50;;;;;4.27;60.36;102319.53;5093520;27;45524;-86
2022/01/16 05:50:31;;;;;;;;;42.25;32.25;;;;;4.29;60.84;102322.13;5072260;27;46028;-84
2022/01/16 05:52:57;;;;;;;;;46.25;33.00;;;;;4.23;61.36;102315.34;5063861;27;47154;-75
2022/01/16 05:55:22;;;;;;;;;45.00;34.75;;;;;4.15;61.72;102293.44;5081619;27;45537;-76
2022/01/16 05:57:48;;;;;;;;;40.50;30.00;;;;;4.18;61.76;102285.88;5072165;27;45676;-77
2022/01/16 06:00:15;;;;;;;;;49.00;37.25;;;;;4.29;61.78;102290.41;5091929;27;45399;-84
2022/01/16 06:02:41;;;;;;;;;56.50;37.00;;;;;4.28;61.79;102291.41;5092605;27;45298;-85
2022/01/16 06:05:07;;;;;;;;;46.00;33.50;;;;;4.31;61.88;102304.72;5075897;27;45470;-82
2022/01/16 06:07:33;;;;;;;;;43.25;33.50;;;;;4.33;61.97;102321.75;5058645;28;45915;-73
2022/01/16 06:09:59;;;;;;;;;34.75;31.50;;;;;4.32;62.05;102328.16;5078908;27;45574;-79
2022/01/16 06:12:24;;;;;;;;;36.75;30.00;;;;;4.27;60.92;102313.22;5094556;27;46627;-82
2022/01/16 06:14:50;;;;;;;;;50.00;33.50;;;;;4.37;61.18;102336.81;5097129;27;45424;-76
2022/01/16 06:17:16;;;;;;;;;27.00;19.75;;;;;4.36;61.83;102335.06;5086822;27;45805;-84
2022/01/16 06:19:41;;;;;;;;;46.25;36.25;;;;;4.35;62.08;102349.63;5056911;28;46037;-82
2022/01/16 06:22:07;;;;;;;;;44.75;33.75;;;;;4.35;61.60;102346.91;5058442;28;47310;-83
2022/01/16 06:24:32;;;;;;;;;45.25;34.50;;;;;4.40;62.78;102350.13;5056680;28;45379;-84
2022/01/16 06:26:58;;;;;;;;;50.00;36.25;;;;;4.42;62.47;102337.25;5084930;27;45309;-83
2022/01/16 06:29:24;;;;;;;;;40.25;30.25;;;;;4.41;61.06;102334.69;5088168;27;45410;-83
2022/01/16 06:31:50;;;;;;;;;30.00;24.50;;;;;4.36;61.88;102326.91;5074476;27;46300;-84
2022/01/16 06:34:15;;;;;;;;;37.25;28.50;;;;;4.36;62.29;102323.34;5072675;27;45658;-77
2022/01/16 06:37:00;;;;;;;;;46.25;33.00;;;;;4.34;62.29;102320.75;5085619;27;45369;-76
2022/01/16 06:39:28;;;;;;;;;44.50;34.00;;;;;4.57;61.35;102332.38;5085197;27;45744;-75
2022/01/16 06:41:54;;;;;;;;;30.75;23.50;;;;;4.64;62.24;102337.28;5082738;27;45633;-74
2022/01/16 06:44:20;;;;;;;;;38.00;30.00;;;;;4.64;61.68;102348.16;5089822;27;45803;-74
2022/01/16 06:46:45;;;;;;;;;35.25;32.25;;;;;4.64;61.94;102338.19;5086167;27;46330;-76
2022/01/16 06:49:12;;;;;;;;;39.25;31.00;;;;;4.66;62.08;102347.06;5072304;27;45443;-75
2022/01/16 06:51:38;;;;;;;;;41.75;27.25;;;;;4.65;62.05;102347.19;5091283;27;45579;-78
2022/01/16 06:54:03;;;;;;;;;36.00;28.25;;;;;4.66;62.07;102344.34;5090107;27;45672;-75
2022/01/16 06:56:29;;;;;;;;;31.00;24.50;;;;;4.68;61.66;102357.78;5087015;27;46814;-73
2022/01/16 06:58:56;;;;;;;;;38.00;27.00;;;;;4.73;62.00;102377.28;5076204;27;45528;-74
2022/01/16 07:01:25;;;;;;;;;35.25;28.00;;;;;4.77;61.71;102384.19;5083351;27;46162;-74
2022/01/16 07:03:51;;;;;;;;;33.25;24.25;;;;;4.79;61.60;102384.94;5086730;27;45819;-76
2022/01/16 07:06:16;;;;;;;;;41.25;28.00;;;;;4.82;60.54;102379.22;5075407;27;47143;-73
2022/01/16 07:08:42;;;;;;;;;27.00;25.75;;;;;4.88;60.59;102383.25;5085998;27;45833;-76
2022/01/16 07:11:08;;;;;;;;;29.75;22.50;;;;;4.86;60.94;102385.25;5084234;27;45801;-72
2022/01/16 07:13:33;;;;;;;;;35.75;27.00;;;;;4.85;60.98;102383.53;5082952;27;45547;-73
2022/01/16 07:15:59;;;;;;;;;34.50;24.50;;;;;4.93;60.80;102376.44;5085799;27;45901;-73
2022/01/16 07:18:24;;;;;;;;;32.25;24.50;;;;;4.93;60.73;102364.72;5081619;27;45670;-72
2022/01/16 07:20:50;;;;;;;;;35.00;28.50;;;;;4.98;59.92;102378.75;5089192;27;45903;-72
2022/01/16 07:23:16;;;;;;;;;36.75;25.25;;;;;4.95;60.64;102395.34;5085170;27;45917;-71
2022/01/16 07:25:43;;;;;;;;;31.75;25.50;;;;;4.89;60.92;102387.72;5086521;27;45729;-72
2022/01/16 07:28:09;;;;;;;;;35.00;27.75;;;;;4.87;60.70;102397.88;5085249;27;46003;-76
2022/01/16 07:30:38;;;;;;;;;40.25;25.75;;;;;4.89;60.92;102434.78;5095218;27;45720;-75
2022/01/16 07:33:05;;;;;;;;;28.00;21.50;;;;;4.82;60.95;102425.44;5082421;27;45404;-76
2022/01/16 07:35:32;;;;;;;;;27.75;22.25;;;;;4.82;60.15;102419.13;5088887;27;46333;-80
2022/01/16 07:37:58;;;;;;;;;27.00;22.75;;;;;4.87;60.27;102422.34;5085968;27;45806;-77
2022/01/16 07:40:24;;;;;;;;;29.00;23.25;;;;;4.93;61.29;102419.09;5084807;27;45431;-74
2022/01/16 07:42:51;;;;;;;;;27.50;23.75;;;;;4.96;60.92;102429.69;5095759;27;45709;-73
2022/01/16 07:45:17;;;;;;;;;35.00;28.50;;;;;4.94;61.00;102413.53;5084444;27;46154;-74
2022/01/16 07:47:42;;;;;;;;;29.50;23.25;;;;;4.95;61.08;102406.22;5074886;27;45550;-76
2022/01/16 07:50:09;;;;;;;;;26.25;24.25;;;;;5.00;60.65;102412.13;5114368;27;45780;-75
2022/01/16 07:52:34;;;;;;;;;35.00;23.00;;;;;5.01;60.31;102410.28;5070536;27;46228;-74
2022/01/16 07:55:01;;;;;;;;;28.50;23.00;;;;;5.00;60.92;102420.31;5071504;27;46752;-72
2022/01/16 07:57:26;;;;;;;;;28.75;23.25;;;;;4.95;60.04;102417.97;5069863;27;45693;-72
2022/01/16 07:59:52;;;;;;;;;38.75;29.25;;;;;4.87;60.41;102411.47;5073617;27;46067;-71
2022/01/16 08:02:18;;;;;;;;;33.50;25.50;;;;;4.95;61.00;102403.50;5071810;27;45798;-71
2022/01/16 08:04:44;;;;;;;;;33.25;26.00;;;;;5.03;60.16;102392.84;5081017;27;46252;-73
2022/01/16 08:07:10;;;;;;;;;35.50;23.75;;;;;5.04;60.18;102399.13;5079183;27;45457;-71
2022/01/16 08:09:37;;;;;;;;;32.25;23.25;;;;;5.08;60.11;102406.88;5069065;27;45440;-73
2022/01/16 08:12:04;;;;;;;;;22.25;21.00;;;;;5.09;60.66;102408.63;5069303;27;45768;-73
2022/01/16 08:14:29;;;;;;;;;22.75;22.75;;;;;5.15;60.75;102404.53;5068970;27;46621;-72
2022/01/16 08:16:56;;;;;;;;;31.75;25.25;;;;;5.19;60.25;102397.81;5071912;27;45429;-74
2022/01/16 08:19:22;;;;;;;;;28.50;20.25;;;;;5.23;59.55;102409.28;5073648;27;45899;-72
2022/01/16 08:21:48;;;;;;;;;36.50;27.00;;;;;5.26;60.01;102425.34;5070769;28;45317;-77
2022/01/16 08:24:13;;;;;;;;;28.00;20.75;;;;;5.26;59.73;102414.47;5072482;28;45320;-80
2022/01/16 08:26:38;;;;;;;;;31.25;26.00;;;;;5.27;59.57;102419.78;5056922;28;45378;-80
2022/01/16 08:29:04;;;;;;;;;30.50;21.25;;;;;5.34;59.90;102417.38;5053823;28;45920;-78
2022/01/16 08:31:29;;;;;;;;;25.50;18.25;;;;;5.32;59.76;102407.66;5055387;28;45974;-80
2022/01/16 08:33:55;;;;;;;;;26.75;23.25;;;;;5.42;60.28;102412.16;5056365;28;46016;-81
2022/01/16 08:36:21;;;;;;;;;28.75;25.00;;;;;5.41;59.61;102402.25;5056660;28;45741;-79
2022/01/16 08:38:47;;;;;;;;;28.00;24.75;;;;;5.38;60.01;102391.63;5057854;28;45523;-77
2022/01/16 08:41:12;;;;;;;;;24.25;20.50;;;;;5.50;59.70;102405.16;5059931;28;45443;-73
2022/01/16 08:43:37;;;;;;;;;30.25;24.25;;;;;5.57;59.81;102411.78;5061942;28;45821;-75
2022/01/16 08:46:03;;;;;;;;;24.75;22.00;;;;;5.64;59.27;102415.69;5074334;27;45281;-77
2022/01/16 08:48:28;;;;;;;;;28.00;20.50;;;;;5.65;59.55;102420.16;5075112;27;45436;-73
2022/01/16 08:50:54;;;;;;;;;31.50;24.00;;;;;5.74;59.06;102419.31;5073833;27;45650;-70
2022/01/16 08:53:20;;;;;;;;;24.25;18.00;;;;;5.83;59.46;102429.41;5073482;27;46166;-72
2022/01/16 08:55:46;;;;;;;;;25.25;19.25;;;;;5.88;59.51;102431.72;5072519;28;45378;-72
2022/01/16 08:58:11;;;;;;;;;23.75;18.00;;;;;5.93;59.89;102442.22;5089511;27;45547;-72
2022/01/16 09:00:37;;;;;;;;;28.75;22.50;;;;;5.96;59.58;102444.66;5067092;27;45350;-72
2022/01/16 09:03:13;;;;;;;;;33.00;27.25;;;;;5.95;58.93;102443.78;5053818;28;46133;-72
2022/01/16 09:05:38;;;;;;;;;23.50;22.75;;;;;6.01;58.72;102442.41;5055202;28;45341;-73
2022/01/16 09:08:04;;;;;;;;;30.25;21.00;;;;;6.11;58.85;102439.75;5053393;28;45628;-72
2022/01/16 09:10:29;;;;;;;;;27.75;20.25;;;;;6.35;58.85;102436.66;5053321;28;45441;-71
2022/01/16 09:12:55;;;;;;;;;23.75;19.00;;;;;6.84;58.01;102434.88;5060633;28;46165;-72
2022/01/16 09:15:20;;;;;;;;;34.50;32.25;;;;;7.57;56.52;102445.31;5072022;28;45479;-73
2022/01/16 09:17:47;;;;;;;;;26.50;23.50;;;;;7.82;55.47;102442.06;5074541;27;45388;-73
2022/01/16 09:20:16;;;;;;;;;22.75;20.50;;;;;7.97;54.34;102456.13;5073579;28;45556;-71
2022/01/16 09:22:45;;;;;;;;;30.33;23.67;;;;;7.97;54.46;102467.03;5073518;27;46062;-72
2022/01/16 09:25:12;;;;;;;;;25.00;23.00;;;;;7.91;54.27;102455.69;5073652;27;45843;-74
2022/01/16 09:27:38;;;;;;;;;32.33;23.67;;;;;8.15;54.20;102453.44;5073936;27;45847;-68
2022/01/16 09:30:07;;;;;;;;;26.33;20.00;;;;;8.84;57.13;102455.66;5072633;27;45660;-71
2022/01/16 09:32:33;;;;;;;;;25.67;22.67;;;;;9.66;54.92;102463.72;5077490;27;45501;-71
2022/01/16 09:35:00;;;;;;;;;27.00;23.33;;;;;10.39;51.39;102447.88;5073735;28;45733;-72
2022/01/16 09:37:26;;;;;;;;;32.33;25.67;;;;;10.97;50.74;102462.56;5072937;27;45404;-73
2022/01/16 09:39:52;;;;;;;;;31.67;26.00;;;;;11.52;47.65;102460.22;5072503;28;45717;-72
2022/01/16 09:42:17;;;;;;;;;28.00;24.33;;;;;11.71;47.74;102454.34;5073198;27;46391;-70
2022/01/16 09:44:44;;;;;;;;;27.67;24.00;;;;;11.81;47.98;102462.38;5071894;28;45648;-71
2022/01/16 09:47:10;;;;;;;;;28.00;25.33;;;;;11.84;46.42;102462.03;5073759;27;45521;-69
2022/01/16 09:49:35;;;;;;;;;25.67;20.67;;;;;12.13;47.29;102463.38;5073272;27;45402;-70
2022/01/16 09:52:01;;;;;;;;;15.67;15.00;;;;;12.64;45.96;102460.25;5071535;27;45774;-73
2022/01/16 09:54:27;;;;;;;;;24.67;21.33;;;;;13.10;44.21;102457.53;5071755;28;45407;-74
2022/01/16 09:56:52;;;;;;;;;25.33;23.33;;;;;13.49;43.57;102466.69;5071494;28;45785;-72
2022/01/16 09:59:18;;;;;;;;;23.33;20.67;;;;;13.42;42.47;102472.97;5072309;27;45462;-72
2022/01/16 10:01:43;;;;;;;;;26.00;24.00;;;;;13.29;43.36;102466.34;5071418;27;45694;-70
2022/01/16 10:04:32;;;;;;;;;25.00;21.33;;;;;13.12;43.89;102469.22;5072643;27;45665;-69
2022/01/16 10:07:00;;;;;;;;;29.67;22.00;;;;;12.97;43.13;102460.03;5066146;27;45481;-73
2022/01/16 10:09:27;;;;;;;;;23.00;20.00;;;;;12.70;43.04;102456.75;5067997;28;45692;-70
2022/01/16 10:11:58;;;;;;;;;20.67;19.00;;;;;12.38;42.52;102466.03;5068627;27;45996;-72
2022/01/16 10:14:31;;;;;;;;;26.00;22.00;;;;;12.06;43.83;102474.22;5068195;28;45787;-71
2022/01/16 10:16:57;;;;;;;;;24.67;21.00;;;;;11.91;44.79;102459.47;5069083;27;45565;-73
2022/01/16 10:19:23;;;;;;;;;24.00;17.67;;;;;12.05;44.49;102467.03;5069708;28;45423;-70
2022/01/16 10:21:49;;;;;;;;;19.67;18.67;;;;;12.44;43.24;102463.44;5068401;27;46541;-70
2022/01/16 10:24:20;;;;;;;;;18.33;16.33;;;;;12.80;41.96;102465.66;5076086;27;45407;-70
2022/01/16 10:26:47;;;;;;;;;21.67;17.67;;;;;13.14;40.98;102461.63;5075805;27;45439;-69
2022/01/16 10:29:20;;;;;;;;;22.33;20.00;;;;;13.22;40.80;102461.56;5073118;27;45768;-70
2022/01/16 10:31:49;;;;;;;;;18.33;17.00;;;;;13.24;41.11;102462.22;5070354;27;45790;-70
2022/01/16 10:34:34;;;;;;;;;24.67;19.00;;;;;13.14;41.43;102469.03;5066837;27;45961;-73
2022/01/16 10:37:00;;;;;;;;;23.67;22.33;;;;;13.24;40.92;102467.75;5066993;27;45973;-71
2022/01/16 10:39:26;;;;;;;;;16.67;14.67;;;;;13.36;40.62;102473.72;5069789;27;45460;-69
2022/01/16 10:42:16;;;;;;;;;24.67;18.00;;;;;13.33;41.20;102473.19;5069609;27;45524;-69
2022/01/16 10:44:43;;;;;;;;;26.00;20.00;;;;;13.40;39.81;102472.31;5070006;27;45683;-69
2022/01/16 10:47:33;;;;;;;;;18.33;18.33;;;;;13.33;41.04;102473.19;5069293;27;45469;-68
2022/01/16 10:50:12;;;;;;;;;21.00;17.67;;;;;13.28;40.75;102456.34;5068189;27;45799;-69
2022/01/16 10:52:51;;;;;;;;;18.33;16.33;;;;;13.28;40.57;102454.47;5068083;28;45559;-69
2022/01/16 10:55:18;;;;;;;;;22.00;19.00;;;;;13.23;40.36;102466.03;5068335;27;45406;-68
2022/01/16 10:57:45;;;;;;;;;19.00;18.00;;;;;13.15;40.99;102457.81;5067822;27;45782;-68
2022/01/16 11:00:17;;;;;;;;;19.67;17.00;;;;;13.14;40.72;102463.53;5071604;27;45742;-69
2022/01/16 11:02:45;;;;;;;;;21.00;17.33;;;;;13.06;40.90;102465.28;5072269;28;46636;-74
2022/01/16 11:05:14;;;;;;;;;19.00;16.67;;;;;12.84;41.21;102471.63;5062328;27;45695;-73
2022/01/16 11:07:40;;;;;;;;;18.33;16.67;;;;;12.42;41.67;102450.88;5069487;27;45925;-68
2022/01/16 11:10:29;;;;;;;;;17.67;16.67;;;;;12.03;43.50;102463.56;5067032;27;45746;-68
2022/01/16 11:12:58;;;;;;;;;19.33;18.00;;;;;11.99;44.34;102467.69;5067782;27;47295;-69
2022/01/16 11:15:24;;;;;;;;;31.33;26.00;;;;;12.00;44.86;102480.44;5069624;27;45856;-69
2022/01/16 11:17:51;;;;;;;;;20.00;16.67;;;;;11.78;44.08;102462.75;5069214;27;45372;-70
2022/01/16 11:20:18;;;;;;;;;18.33;17.00;;;;;11.64;44.01;102461.56;5072535;27;45358;-71
2022/01/16 11:25:34;;;;;;;;;21.00;18.00;;;;;11.35;45.18;102478.56;5072020;27;45553;-70
2022/01/16 11:28:03;;;;;;;;;18.67;17.33;;;;;11.25;45.45;102474.09;5074698;28;45706;-74
2022/01/16 11:30:31;;;;;;;;;20.33;17.67;;;;;11.08;45.39;102465.00;5073159;27;45804;-78
2022/01/16 11:32:57;;;;;;;;;19.00;17.00;;;;;10.92;46.20;102462.25;5087496;27;47512;-75
2022/01/16 11:35:24;;;;;;;;;23.33;21.67;;;;;10.76;46.32;102472.16;5075123;27;45808;-69
2022/01/16 11:37:50;;;;;;;;;24.67;21.67;;;;;10.54;47.74;102461.81;5074950;27;45814;-70
2022/01/16 11:40:45;;;;;;;;;20.67;18.67;;;;;10.56;47.40;102479.81;5075174;27;45484;-68
2022/01/16 11:43:14;;;;;;;;;24.33;20.00;;;;;10.50;48.09;102480.47;5075602;28;45691;-75
2022/01/16 11:45:47;;;;;;;;;20.33;18.67;;;;;10.36;48.98;102476.47;5074557;27;45357;-78
2022/01/16 11:48:16;;;;;;;;;20.33;18.67;;;;;10.25;49.12;102473.97;5074885;28;45620;-76
2022/01/16 11:50:41;;;;;;;;;27.67;25.67;;;;;10.10;49.83;102467.41;5074215;28;45468;-70
2022/01/16 11:53:07;;;;;;;;;22.33;20.00;;;;;10.04;49.86;102456.09;5074831;27;45534;-76
2022/01/16 11:55:34;;;;;;;;;23.67;19.67;;;;;9.94;50.17;102455.34;5075050;27;45359;-76
2022/01/16 11:58:00;;;;;;;;;26.33;22.33;;;;;9.86;51.26;102453.38;5074405;27;45479;-75
2022/01/16 12:00:42;;;;;;;;;26.00;22.00;;;;;9.86;51.14;102450.66;5075280;27;45454;-68
2022/01/16 12:03:34;;;;;;;;;21.33;18.67;;;;;9.80;50.76;102447.72;5074289;28;45430;-75